シドニー の空港の天気 - METARとTAF

シドニー国際空港 ( YSSY / SYD ) - オーストラリア ニューサウスウェールズ州、Mascot
飛行場実況気象(Metar)
観測時間09/25 11:30 AEST (09/25 01:30 UTC)
風向・風速南南東 4m/s
視程10km以上
天気現象
少しの雲 雲底高度 670m
全天の4割程度の雲 雲底高度 980m
全天の8割程度の雲 雲底高度 1520m
気温16℃
湿度68%
気圧1027hPa
METARYSSY 250130Z 16008KT 9999 FEW022 SCT032 BKN050 16/10 Q1027 NOSIG
過去の天気等 Google飛行場航空写真 Wunderground天気予報

過去48時間のMETAR

飛行場予報(TAF)
発表時間: 9/25 09:30 AEST (9/24 23:30 UTC)
予報対象時間: 25日10時 AEST ~ 26日16時 AEST
風向・風速東南東 7m/s
視程10km以上
全天の4割程度の雲 雲底高度 1070m
25日18時 AEST から
風向・風速東北東 4m/s
視程10km以上
少しの雲 雲底高度 910m
25日22時 AEST から
風向・風速西北西 4m/s
視程10km以上
全天の4割程度の雲 雲底高度 910m
26日5時 AEST から
風向・風速南西 4m/s
視程10km以上
天気現象弱いしゅう雨
全天の4割程度の雲 雲底高度 910m
26日10時 AEST から
風向・風速南 5m/s
視程10km以上
天気現象弱いしゅう雨
全天の4割程度の雲 雲底高度 760m
26日13時 AEST から
風向・風速南南東 8m/s
視程10km以上
天気現象弱いしゅう雨
全天の4割程度の雲 雲底高度 610m
26日11時 AEST ~ 26日15時 AEST に 確率 30% で一時的に
風向・風速不定 13m/s 瞬間風速 18m/s
視程3000m
天気現象雷雨
全天の4割程度の雲 雲底高度 460m
少しの積乱雲 雲底高度 910m
TAF YSSY 242330Z 2500/2606 12013KT 9999 SCT035
FM250800 06008KT 9999 FEW030
FM251200 29008KT 9999 SCT030
FM251900 23008KT 9999 -SHRA SCT030
FM260000 18010KT 9999 -SHRA SCT025
FM260300 16015KT 9999 -SHRA SCT020
PROB30 TEMPO 2601/2605 VRB25G35KT 3000 TSRA SCT015 FEW030CB